Latest Weather Observations for Troughton Island

IDW60801

Issued at 1:43 pm WST Tuesday 23 October 2018 (issued every 10 minutes, with the page automatically refreshed every 10 minutes)

About weather observations | Map of weather stations | Latest weather observations for WA | Other Formats
Station Details ID: 001007 Name: TROUGHTON ISLAND Lat: -13.75 Lon: 126.15 Height: 6.0 m
Data from the previous 72 hours. | See also: Recent months at Troughton Island
Date/Time
WST
Temp
°C
App
Temp
°C
Dew
Point
°C
Rel
Hum
%
Delta-T
°C
Wind Press
QNH
hPa
Press
MSL
hPa
Rain since
9am
mm
Dir  Spd
km/h
Gust
km/h
Spd
kts
Gust
kts
23/01:30pm 31.5 35.0 25.4 70 4.3 WNW 17 20 9 11 1009.5 1009.4 0.0
23/01:00pm 31.4 34.5 24.8 68 4.6 W 17 20 9 11 1009.6 1009.5 0.0
23/12:30pm 31.4 34.1 24.8 68 4.6 W 19 20 10 11 1009.9 1009.8 0.0
23/12:00pm 31.4 34.2 24.3 66 5.0 W 17 20 9 11 1010.3 1010.2 0.0
23/11:30am 31.6 34.1 24.5 66 5.0 WSW 19 22 10 12 1010.6 1010.5 0.0
23/11:00am 31.7 34.7 24.6 66 5.0 WSW 17 20 9 11 1011.1 1011.0 0.0
23/10:30am 31.6 34.9 24.5 66 5.0 WSW 15 20 8 11 1011.6 1011.5 0.0
23/10:00am 31.4 33.9 24.5 67 4.8 WSW 19 22 10 12 1011.4 1011.3 0.0
23/09:30am 30.6 32.8 24.3 69 4.4 WSW 20 22 11 12 1011.4 1011.3 0.0
23/09:00am 30.0 32.0 23.9 70 4.2 WSW 20 24 11 13 1011.6 1011.5 0.0
23/08:30am 30.0 32.6 23.9 70 4.2 W 17 20 9 11 1011.7 1011.6 0.0
23/08:00am 30.1 32.3 24.0 70 4.2 W 19 22 10 12 1011.4 1011.3 0.0
23/07:30am 29.3 32.5 23.7 72 3.9 WSW 13 19 7 10 1011.4 1011.3 0.0
23/07:00am 28.8 31.9 24.1 76 3.3 W 15 17 8 9 1011.0 1010.9 0.0
23/06:30am 28.2 30.4 24.0 78 2.9 WNW 19 22 10 12 1010.7 1010.6 0.0
23/06:00am 27.8 29.7 23.8 79 2.8 WNW 20 24 11 13 1010.4 1010.3 0.0
23/05:30am 27.5 28.9 23.5 79 2.7 NNW 22 26 12 14 1009.5 1009.4 0.0
23/05:00am 27.3 28.9 23.3 79 2.7 NW 20 24 11 13 1009.3 1009.2 0.0
23/04:30am 27.4 30.1 23.4 79 2.7 WNW 15 17 8 9 1009.8 1009.7 0.0
23/04:00am 27.3 30.8 23.5 80 2.6 WNW 11 15 6 8 1009.6 1009.5 0.0
23/03:30am 27.4 31.0 23.8 81 2.5 W 11 13 6 7 1009.6 1009.5 0.0
23/03:00am 27.3 31.1 23.5 80 2.6 WSW 9 11 5 6 1009.9 1009.8 0.0
23/02:30am 27.4 30.1 23.4 79 2.7 SSW 15 17 8 9 1010.3 1010.2 0.0
23/02:00am 27.6 30.0 23.6 79 2.7 SW 17 20 9 11 1010.5 1010.4 0.0
23/01:30am 27.6 30.4 23.6 79 2.7 SW 15 19 8 10 1010.5 1010.4 0.0
23/01:00am 27.7 30.9 23.7 79 2.8 W 13 17 7 9 1010.2 1010.1 0.0
23/12:30am 27.7 30.0 23.5 78 2.9 W 17 20 9 11 1010.3 1010.2 0.0
23/12:00am 27.8 30.3 23.8 79 2.8 WSW 17 20 9 11 1010.5 1010.4 0.0
 
Date/Time
WST
Temp
°C
App
Temp
°C
Dew
Point
°C
Rel
Hum
%
Delta-T
°C
Wind Press
QNH
hPa
Press
MSL
hPa
Rain since
9am
mm
Dir  Spd
km/h
Gust
km/h
Spd
kts
Gust
kts
22/11:30pm 27.9 29.9 23.9 79 2.8 WNW 20 24 11 13 1010.7 1010.6 0.0
22/11:00pm 27.9 29.5 23.9 79 2.8 WNW 22 26 12 14 1010.7 1010.6 0.0
22/10:30pm 27.8 29.5 24.0 80 2.6 WNW 22 26 12 14 1011.1 1011.0 0.0
22/10:00pm 27.8 29.4 23.8 79 2.8 W 22 26 12 14 1011.5 1011.4 0.0
22/09:30pm 28.0 30.0 24.0 79 2.8 W 20 22 11 12 1011.8 1011.7 0.0
22/09:00pm 28.0 30.0 24.0 79 2.8 WNW 20 24 11 13 1012.0 1011.9 0.0
22/08:30pm 27.9 29.9 23.9 79 2.8 WNW 20 26 11 14 1011.1 1011.0 0.0
22/08:00pm 27.9 29.8 23.7 78 2.9 WNW 20 24 11 13 1011.0 1010.9 0.0
22/07:30pm 28.1 29.7 23.9 78 2.9 WNW 22 26 12 14 1011.0 1010.9 0.0
22/07:00pm 28.1 29.3 23.9 78 2.9 WNW 24 26 13 14 1010.9 1010.8 0.0
22/06:30pm 28.1 30.2 24.1 79 2.8 WNW 20 26 11 14 1010.5 1010.4 0.0
22/06:00pm 28.2 30.0 24.2 79 2.8 W 22 28 12 15 1010.3 1010.2 0.0
22/05:30pm 28.3 29.6 24.1 78 2.9 W 24 28 13 15 1009.9 1009.8 0.0
22/05:00pm 28.6 29.8 23.9 75 3.2 W 24 28 13 15 1009.7 1009.6 0.0
22/04:30pm 28.9 30.1 23.8 74 3.5 WNW 24 30 13 16 1009.5 1009.4 0.0
22/04:00pm 29.6 31.0 24.2 73 3.8 W 24 30 13 16 1009.2 1009.1 0.0
22/03:30pm 30.5 31.5 24.2 69 4.4 W 26 30 14 16 1009.0 1008.9 0.0
22/03:00pm 30.1 30.9 24.5 72 3.9 W 28 33 15 18 1008.8 1008.7 0.0
22/02:30pm 29.9 30.6 24.3 72 3.9 W 28 35 15 19 1009.0 1008.9 0.0
22/02:00pm 30.4 30.6 24.1 69 4.4 W 30 35 16 19 1009.1 1009.0 0.0
22/01:30pm 30.4 30.7 23.6 67 4.7 W 28 33 15 18 1009.6 1009.5 0.0
22/01:00pm 30.0 30.4 23.7 69 4.4 W 28 33 15 18 1009.9 1009.8 0.0
22/12:30pm 30.7 31.3 24.1 68 4.6 WNW 28 32 15 17 1010.3 1010.2 0.0
22/12:00pm 31.3 32.2 23.9 64 5.1 WNW 26 32 14 17 1010.7 1010.6 0.0
22/11:30am 30.0 31.2 23.9 70 4.2 WNW 24 28 13 15 1011.4 1011.3 0.0
22/11:00am 29.3 30.4 23.7 72 3.9 WNW 24 28 13 15 1011.8 1011.7 0.0
22/10:30am 29.4 31.3 23.8 72 3.9 W 20 24 11 13 1012.4 1012.3 0.0
22/10:00am 29.6 31.4 23.5 69 4.2 W 20 24 11 13 1012.6 1012.5 0.0
22/09:30am 29.9 32.1 23.3 67 4.5 WSW 17 19 9 10 1013.1 1013.0 0.0
22/09:00am 29.7 31.9 23.2 68 4.5 WSW 17 19 9 10 1013.2 1013.1 0.0
22/08:30am 29.8 32.0 23.3 68 4.5 W 17 20 9 11 1013.3 1013.2 0.0
22/08:00am 28.8 31.3 23.2 71 3.8 WSW 15 19 8 10 1013.3 1013.2 0.0
22/07:30am 28.5 31.0 23.2 73 3.6 W 15 19 8 10 1013.2 1013.1 0.0
22/07:00am 28.4 30.9 23.8 76 3.2 W 17 20 9 11 1013.1 1013.0 0.0
22/06:30am 28.1 30.2 23.7 77 3.0 W 19 22 10 12 1012.9 1012.8 0.0
22/06:00am 27.8 29.7 23.8 79 2.8 W 20 24 11 13 1012.3 1012.2 0.0
22/05:30am 27.6 29.4 23.6 79 2.7 W 20 26 11 14 1011.8 1011.7 0.0
22/05:00am 27.6 29.6 24.0 81 2.5 W 20 26 11 14 1011.6 1011.5 0.0
22/04:30am 27.6 28.8 23.8 80 2.6 W 24 30 13 16 1011.2 1011.1 0.0
22/04:00am 27.7 29.0 24.1 81 2.5 W 24 30 13 16 1010.7 1010.6 0.0
22/03:30am 27.6 28.7 23.6 79 2.7 W 24 28 13 15 1010.6 1010.5 0.0
22/03:00am 27.6 28.4 23.8 80 2.6 WNW 26 30 14 16 1010.4 1010.3 0.0
22/02:30am 27.6 28.3 23.6 79 2.7 WNW 26 32 14 17 1010.2 1010.1 0.0
22/02:00am 27.7 28.6 23.9 80 2.6 WNW 26 30 14 16 1010.0 1009.9 0.0
22/01:30am 27.7 28.9 23.9 80 2.6 W 24 30 13 16 1010.3 1010.2 0.0
22/01:00am 27.6 28.9 24.0 81 2.5 W 24 30 13 16 1010.3 1010.2 0.0
22/12:30am 27.7 28.6 23.9 80 2.6 W 26 30 14 16 1010.5 1010.4 0.0
22/12:00am 27.8 29.1 24.6 83 2.2 WNW 26 30 14 16 1010.7 1010.6 0.0
 
Date/Time
WST
Temp
°C
App
Temp
°C
Dew
Point
°C
Rel
Hum
%
Delta-T
°C
Wind Press
QNH
hPa
Press
MSL
hPa
Rain since
9am
mm
Dir  Spd
km/h
Gust
km/h
Spd
kts
Gust
kts
21/11:30pm 27.9 29.5 24.5 82 2.4 WNW 24 28 13 15 1011.0 1010.9 0.0
21/11:00pm 27.8 29.6 24.2 81 2.5 WNW 22 26 12 14 1011.4 1011.3 0.0
21/10:30pm 28.0 30.0 24.6 82 2.4 W 22 26 12 14 1011.8 1011.7 0.0
21/10:00pm 28.0 30.3 24.4 81 2.5 W 20 26 11 14 1012.1 1012.0 0.0
21/09:30pm 28.0 30.5 24.4 81 2.5 WNW 19 22 10 12 1012.3 1012.2 0.0
21/09:00pm 27.9 29.4 24.3 81 2.5 WNW 24 28 13 15 1011.9 1011.8 0.0
21/08:30pm 28.1 30.1 24.5 81 2.5 WNW 22 26 12 14 1011.6 1011.5 0.0
21/08:00pm 28.0 29.9 24.4 81 2.5 WNW 22 26 12 14 1011.4 1011.3 0.0
21/07:30pm 28.1 30.3 24.3 80 2.6 WNW 20 26 11 14 1011.3 1011.2 0.0
21/07:00pm 28.2 30.8 24.6 81 2.5 WNW 19 24 10 13 1011.1 1011.0 0.0
21/06:30pm 28.3 30.9 24.9 82 2.4 WNW 20 24 11 13 1010.9 1010.8 0.0
21/06:00pm 28.2 30.6 24.6 81 2.5 WNW 20 26 11 14 1010.6 1010.5 0.0
21/05:30pm 28.5 30.6 24.7 80 2.7 WNW 22 26 12 14 1010.1 1010.0 0.0
21/05:00pm 28.9 30.4 24.9 79 2.8 W 26 30 14 16 1009.5 1009.4 0.0
21/04:30pm 29.5 30.0 23.9 72 3.9 WNW 28 33 15 18 1009.0 1008.9 0.0
21/04:00pm 30.3 31.4 24.4 70 4.1 W 26 32 14 17 1009.0 1008.9 0.0
21/03:30pm 30.6 31.7 24.3 69 4.4 W 26 32 14 17 1009.1 1009.0 0.0
21/03:00pm 30.4 30.8 23.8 68 4.6 W 28 33 15 18 1009.1 1009.0 0.0
21/02:30pm 31.0 31.8 24.4 68 4.6 W 28 33 15 18 1009.5 1009.4 0.0
21/02:00pm 31.2 31.5 24.8 69 4.5 W 32 35 17 19 1009.5 1009.4 0.0
21/01:30pm 30.6 30.9 25.2 73 3.8 W 33 39 18 21 1009.6 1009.5 0.0
21/01:00pm 29.5 28.8 24.8 76 3.3 W 37 43 20 23 1009.9 1009.8 0.0
21/12:30pm 29.3 29.4 25.5 80 2.7 W 35 41 19 22 1010.4 1010.3 0.0
21/12:00pm 29.6 29.9 24.9 76 3.3 W 32 39 17 21 1011.1 1011.0 0.0
21/11:30am 30.1 30.8 24.9 73 3.6 WNW 30 33 16 18 1011.8 1011.7 0.0
21/11:00am 29.7 31.1 24.8 75 3.4 WNW 26 32 14 17 1012.6 1012.5 0.0
21/10:30am 29.9 32.4 24.8 74 3.6 NW 20 26 11 14 1013.3 1013.2 0.0
21/10:00am 30.8 33.0 24.2 68 4.6 NW 20 26 11 14 1013.5 1013.4 0.0
21/09:30am 31.2 32.9 24.1 66 4.9 WNW 22 28 12 15 1013.6 1013.5 0.0
21/09:00am 30.4 31.9 24.3 70 4.3 WNW 24 28 13 15 1013.9 1013.8 0.0
21/08:30am 29.2 30.9 24.7 77 3.1 WNW 24 28 13 15 1013.9 1013.8 0.0
21/08:00am 29.3 30.7 24.8 77 3.1 WNW 26 32 14 17 1013.7 1013.6 0.0
21/07:30am 29.3 30.2 24.6 76 3.3 W 28 33 15 18 1013.6 1013.5 0.0
21/07:00am 28.6 29.4 25.0 81 2.5 W 30 35 16 19 1013.1 1013.0 0.0
21/06:30am 28.3 29.3 24.7 81 2.5 W 28 33 15 18 1012.9 1012.8 0.0
21/06:00am 28.2 29.2 24.8 82 2.4 WNW 28 33 15 18 1012.7 1012.6 0.0
21/05:30am 28.1 29.4 24.7 82 2.4 W 26 32 14 17 1012.4 1012.3 0.0
21/05:00am 28.0 29.7 24.6 82 2.4 W 24 28 13 15 1012.1 1012.0 0.0
21/04:30am 28.0 30.0 24.6 82 2.4 W 22 26 12 14 1011.8 1011.7 0.0
21/04:00am 27.9 29.6 24.7 83 2.2 W 24 30 13 16 1011.6 1011.5 0.0
21/03:30am 27.9 30.4 24.7 83 2.2 W 20 26 11 14 1011.4 1011.3 0.0
21/03:00am 28.0 30.2 24.8 83 2.2 W 22 28 12 15 1011.1 1011.0 0.0
21/02:30am 27.9 29.5 24.5 82 2.4 W 24 30 13 16 1010.7 1010.6 0.0
21/02:00am 28.1 29.8 25.3 85 2.0 W 26 30 14 16 1010.5 1010.4 0.0
21/01:30am 28.0 29.1 25.0 84 2.1 W 28 32 15 17 1010.6 1010.5 0.0
21/01:00am 28.0 29.3 25.2 85 2.0 W 28 35 15 19 1010.8 1010.7 0.0
21/12:30am 28.1 29.2 24.9 83 2.2 W 28 32 15 17 1011.1 1011.0 0.0
21/12:00am 28.2 29.3 25.0 83 2.2 W 28 33 15 18 1011.4 1011.3 0.0
 
Date/Time
WST
Temp
°C
App
Temp
°C
Dew
Point
°C
Rel
Hum
%
Delta-T
°C
Wind Press
QNH
hPa
Press
MSL
hPa
Rain since
9am
mm
Dir  Spd
km/h
Gust
km/h
Spd
kts
Gust
kts
20/11:30pm 28.1 29.2 24.9 83 2.2 W 28 33 15 18 1011.6 1011.5 0.0
20/11:00pm 28.1 29.2 24.9 83 2.2 W 28 32 15 17 1012.0 1011.9 0.0
20/10:30pm 28.2 29.2 25.4 85 2.0 W 30 33 16 18 1012.2 1012.1 0.0
20/10:00pm 28.2 29.6 25.4 85 2.0 W 28 30 15 16 1012.5 1012.4 0.0
20/09:30pm 28.2 29.7 25.0 83 2.2 W 26 30 14 16 1012.7 1012.6 0.0
20/09:00pm 28.3 30.1 24.9 82 2.4 W 24 28 13 15 1013.1 1013.0 0.0
20/08:30pm 28.3 30.5 24.9 82 2.4 W 22 28 12 15 1013.0 1012.9 0.0
20/08:00pm 28.2 29.9 24.6 81 2.5 W 24 30 13 16 1012.7 1012.6 0.0
20/07:30pm 28.2 30.1 25.0 83 2.2 WNW 24 28 13 15 1012.4 1012.3 0.0
20/07:00pm 28.3 30.5 24.9 82 2.4 WNW 22 28 12 15 1012.0 1011.9 0.0
20/06:30pm 28.3 29.8 24.9 82 2.4 WNW 26 30 14 16 1011.7 1011.6 0.0
20/06:00pm 28.3 29.6 24.7 81 2.5 WNW 26 30 14 16 1011.4 1011.3 0.0
20/05:30pm 28.4 29.4 24.8 81 2.5 WNW 28 33 15 18 1010.8 1010.7 0.0
20/05:00pm 28.9 29.5 24.7 78 2.9 WNW 30 35 16 19 1010.5 1010.4 0.0
20/04:30pm 29.5 30.1 25.3 78 3.0 W 32 37 17 20 1010.1 1010.0 0.0
20/04:00pm 29.8 29.9 24.9 75 3.4 W 33 37 18 20 1010.0 1009.9 0.0
20/03:30pm 30.3 30.5 25.1 73 3.7 WNW 33 41 18 22 1009.8 1009.7 0.0
20/03:00pm 30.5 30.7 25.1 73 3.8 W 33 39 18 21 1009.8 1009.7 0.0
20/02:30pm 30.8 31.3 25.2 72 4.0 WNW 32 39 17 21 1010.0 1009.9 0.0
20/02:00pm 31.3 32.3 25.4 71 4.2 WNW 30 35 16 19 1010.2 1010.1 0.0

Other Formats:

Comma delimited format used in spreadsheet applications
http://www.bom.gov.au/fwo/IDW60801/IDW60801.94102.axf

JavaScript Object Notation format (JSON) in row-major order
http://www.bom.gov.au/fwo/IDW60801/IDW60801.94102.json